createdAt,value
2023-03-06T00:00:06.611Z,6.6
2023-03-06T00:01:22.907Z,6.5
2023-03-06T00:02:39.318Z,6.5
2023-03-06T00:03:55.623Z,6.5
2023-03-06T00:05:11.924Z,6.3
2023-03-06T00:06:28.204Z,6.5
2023-03-06T00:07:44.504Z,6.3
2023-03-06T00:09:00.797Z,7
2023-03-06T00:10:17.087Z,6.8
2023-03-06T00:11:33.395Z,6.8
2023-03-06T00:12:49.683Z,7.3
2023-03-06T00:14:05.980Z,6.9
2023-03-06T00:15:22.277Z,6.8
2023-03-06T00:16:38.574Z,7.1
2023-03-06T00:17:54.869Z,7.3
2023-03-06T00:19:10.166Z,7
2023-03-06T00:20:26.464Z,7.4
2023-03-06T00:21:42.768Z,7.4
2023-03-06T00:22:59.053Z,7
2023-03-06T00:24:15.354Z,7.3
2023-03-06T00:26:47.934Z,7.4
2023-03-06T00:28:04.227Z,7.3
2023-03-06T00:29:20.533Z,7.1
2023-03-06T00:30:36.827Z,7.4
2023-03-06T00:31:53.127Z,7.4
2023-03-06T00:33:09.414Z,7.7
2023-03-06T00:34:25.720Z,7.2
2023-03-06T00:35:41.022Z,7.7
2023-03-06T00:36:57.314Z,7.6
2023-03-06T00:38:13.607Z,7.5
2023-03-06T00:39:29.909Z,7.3
2023-03-06T00:40:46.208Z,7.7
2023-03-06T00:42:02.493Z,7.4
2023-03-06T00:43:18.793Z,7.3
2023-03-06T00:44:35.089Z,7.8
2023-03-06T00:45:51.376Z,7.7
2023-03-06T00:47:07.682Z,7.8
2023-03-06T00:48:23.978Z,7.8
2023-03-06T00:49:40.255Z,7.8
2023-03-06T00:50:56.557Z,7.8
2023-03-06T00:52:11.862Z,7.8
2023-03-06T00:53:28.172Z,7.7
2023-03-06T00:54:44.452Z,7.8
2023-03-06T00:56:00.750Z,8.3
2023-03-06T00:57:17.048Z,8.3
2023-03-06T00:58:33.346Z,8.2
2023-03-06T00:59:49.630Z,8.6
2023-03-06T01:01:05.928Z,8.7
2023-03-06T01:02:22.224Z,8.5
2023-03-06T01:03:38.518Z,8.3
2023-03-06T01:04:54.813Z,8.2
2023-03-06T01:06:11.120Z,9.1
2023-03-06T01:07:27.400Z,9.2
2023-03-06T01:08:43.816Z,9.1
2023-03-06T01:10:00.123Z,8.7
2023-03-06T01:11:16.420Z,8.7
2023-03-06T01:12:32.701Z,8.8
2023-03-06T01:13:49.016Z,8.8
2023-03-06T01:15:05.289Z,8.8
2023-03-06T01:16:21.596Z,9.1
2023-03-06T01:17:37.889Z,8.5
2023-03-06T01:18:54.187Z,8.8
2023-03-06T01:20:10.477Z,8.9
2023-03-06T01:21:26.770Z,8.9
2023-03-06T01:22:43.070Z,8.9
2023-03-06T01:23:59.355Z,9.4
2023-03-06T01:25:14.666Z,8.9
2023-03-06T01:26:30.968Z,9.2
2023-03-06T01:27:47.254Z,8.7
2023-03-06T01:29:03.559Z,9
2023-03-06T01:30:19.854Z,9.2
2023-03-06T01:31:36.147Z,9.3
2023-03-06T01:32:52.428Z,8.4
2023-03-06T01:34:08.724Z,8.6
2023-03-06T01:35:25.035Z,8.9
2023-03-06T01:36:41.314Z,9.2
2023-03-06T01:37:57.622Z,8.4
2023-03-06T01:39:13.913Z,8.5
2023-03-06T01:40:30.214Z,8.5
2023-03-06T01:41:45.526Z,8.9
2023-03-06T01:43:01.807Z,8.4
2023-03-06T01:45:34.412Z,8.5
2023-03-06T01:46:50.707Z,8.9
2023-03-06T01:48:06.983Z,8.5
2023-03-06T01:49:23.296Z,8.8
2023-03-06T01:50:39.581Z,8.2
2023-03-06T01:51:55.874Z,8.5
2023-03-06T01:54:28.463Z,8.2
2023-03-06T01:55:44.759Z,8.5
2023-03-06T01:58:17.347Z,8.3
2023-03-06T01:59:32.675Z,8.7
2023-03-06T02:00:47.982Z,8.5
2023-03-06T02:02:04.267Z,8.1
2023-03-06T02:03:20.571Z,8.3
2023-03-06T02:05:53.162Z,8.2
2023-03-06T02:07:09.455Z,8.4
2023-03-06T02:08:25.752Z,7.7
2023-03-06T02:09:42.041Z,7.9
2023-03-06T02:10:58.346Z,8.3
2023-03-06T02:12:14.640Z,8
2023-03-06T02:13:30.922Z,8.2
2023-03-06T02:14:47.216Z,8.6
2023-03-06T02:16:03.510Z,8.2
2023-03-06T02:17:18.825Z,8.2
2023-03-06T02:18:35.118Z,8.2
2023-03-06T02:19:51.418Z,8.8
2023-03-06T02:21:07.703Z,8.2
2023-03-06T02:22:23.021Z,8.6
2023-03-06T02:23:39.324Z,8.6
2023-03-06T02:24:55.618Z,8.1
2023-03-06T02:26:11.922Z,8.1
2023-03-06T02:27:27.239Z,8
2023-03-06T02:28:42.537Z,8
2023-03-06T02:29:58.846Z,7.9
2023-03-06T02:31:15.135Z,7.9
2023-03-06T02:32:31.430Z,8.5
2023-03-06T02:33:47.717Z,8
2023-03-06T02:35:04.024Z,8.1
2023-03-06T02:36:20.299Z,8.1
2023-03-06T02:37:36.604Z,7.8
2023-03-06T02:38:52.902Z,8.3
2023-03-06T02:40:09.198Z,8.1
2023-03-06T02:41:25.497Z,8
2023-03-06T02:42:41.784Z,8.3
2023-03-06T02:43:58.085Z,8.5
2023-03-06T02:45:13.380Z,8.6
2023-03-06T02:46:29.681Z,8.4
2023-03-06T02:47:45.989Z,7.8
2023-03-06T02:50:18.576Z,8.3
2023-03-06T02:51:34.857Z,7.8
2023-03-06T02:52:51.157Z,8.9
2023-03-06T02:54:07.457Z,8.6
2023-03-06T02:55:23.746Z,8.3
2023-03-06T02:56:40.043Z,8.5
2023-03-06T02:57:56.337Z,8.3
2023-03-06T02:59:12.632Z,8.1
2023-03-06T03:01:45.224Z,8.4
2023-03-06T03:03:01.645Z,8.9
2023-03-06T03:04:17.926Z,8.4
2023-03-06T03:05:34.232Z,8.7
2023-03-06T03:06:50.514Z,8.6
2023-03-06T03:08:06.817Z,8.6
2023-03-06T03:09:23.109Z,8.3
2023-03-06T03:10:39.401Z,8.5
2023-03-06T03:11:55.697Z,8.5
2023-03-06T03:13:12.005Z,8.5
2023-03-06T03:14:28.288Z,8.7
2023-03-06T03:15:44.579Z,8.6
2023-03-06T03:18:17.170Z,8.6
2023-03-06T03:19:32.487Z,9
2023-03-06T03:20:48.777Z,9.2
2023-03-06T03:22:05.084Z,8.5
2023-03-06T03:23:21.373Z,8.9
2023-03-06T03:24:37.661Z,8.4
2023-03-06T03:25:53.968Z,8.6
2023-03-06T03:27:10.248Z,8.7
2023-03-06T03:28:26.561Z,8.8
2023-03-06T03:29:42.843Z,8.8
2023-03-06T03:30:59.143Z,8.7
2023-03-06T03:32:15.439Z,9
2023-03-06T03:33:31.723Z,8.9
2023-03-06T03:34:48.017Z,9.2
2023-03-06T03:37:19.630Z,8.6
2023-03-06T03:39:52.221Z,8
2023-03-06T03:41:07.529Z,8.7
2023-03-06T03:42:22.846Z,8.5
2023-03-06T03:43:39.135Z,7.9
2023-03-06T03:44:55.447Z,8.6
2023-03-06T03:46:11.740Z,7.9
2023-03-06T03:47:28.022Z,8.4
2023-03-06T03:48:44.324Z,8.3
2023-03-06T03:50:00.613Z,8.2
2023-03-06T03:51:16.911Z,8
2023-03-06T03:52:33.199Z,8.2
2023-03-06T03:53:49.498Z,8.3
2023-03-06T03:55:04.818Z,8.1
2023-03-06T03:56:20.122Z,8.5
2023-03-06T03:57:36.425Z,8.7
2023-03-06T03:58:52.716Z,8.1
2023-03-06T04:00:09.005Z,8.5
2023-03-06T04:01:25.305Z,8.8
2023-03-06T04:02:41.596Z,8.7
2023-03-06T04:05:14.197Z,8.7
2023-03-06T04:06:30.491Z,8.8
2023-03-06T04:07:46.788Z,8.2
2023-03-06T04:09:03.081Z,8.8
2023-03-06T04:10:19.379Z,8.6
2023-03-06T04:11:35.670Z,8.9
2023-03-06T04:12:50.973Z,8.6
2023-03-06T04:14:07.277Z,8.2
2023-03-06T04:15:23.571Z,8.8
2023-03-06T04:16:39.862Z,8.8
2023-03-06T04:17:56.157Z,8.9
2023-03-06T04:19:12.461Z,8.6
2023-03-06T04:20:28.743Z,7.9
2023-03-06T04:21:45.048Z,7.7
2023-03-06T04:23:01.326Z,8.6
2023-03-06T04:24:17.637Z,8.3
2023-03-06T04:25:33.916Z,8.4
2023-03-06T04:26:50.221Z,8.3
2023-03-06T04:28:06.514Z,8.4
2023-03-06T04:29:21.826Z,8.6
2023-03-06T04:30:38.123Z,8.3
2023-03-06T04:31:54.409Z,8.4
2023-03-06T04:33:10.701Z,8.5
2023-03-06T04:34:27.004Z,8.5
2023-03-06T04:35:43.000Z,8.5
2023-03-06T04:36:59.588Z,8
2023-03-06T04:38:15.882Z,8.2
2023-03-06T04:39:32.180Z,8.9
2023-03-06T04:40:48.485Z,8.5
2023-03-06T04:42:04.778Z,8.8
2023-03-06T04:43:21.069Z,8.7
2023-03-06T04:44:37.370Z,8.3
2023-03-06T04:45:52.684Z,8.3
2023-03-06T04:47:08.960Z,9
2023-03-06T04:49:41.566Z,8.4
2023-03-06T04:50:57.865Z,8.1
2023-03-06T04:53:30.435Z,8.8
2023-03-06T04:54:46.751Z,8.8
2023-03-06T04:56:03.029Z,8.7
2023-03-06T04:57:19.324Z,9.4
2023-03-06T04:58:35.623Z,8.9
2023-03-06T05:01:08.219Z,8.7
2023-03-06T05:02:23.527Z,9
2023-03-06T05:03:38.833Z,8.9
2023-03-06T05:04:55.144Z,8.7
2023-03-06T05:06:11.426Z,8.9
2023-03-06T05:07:27.721Z,9.3
2023-03-06T05:08:44.024Z,9
2023-03-06T05:10:00.325Z,9.3
2023-03-06T05:11:16.563Z,9.5
2023-03-06T05:12:32.849Z,9.5
2023-03-06T05:13:49.109Z,9.6
2023-03-06T05:15:05.343Z,9.5
2023-03-06T05:16:21.734Z,9.4
2023-03-06T05:17:36.991Z,9.5
2023-03-06T05:18:53.244Z,9.9
2023-03-06T05:20:09.472Z,9.4
2023-03-06T05:21:25.725Z,9.8
2023-03-06T05:22:41.964Z,10
2023-03-06T05:23:58.209Z,9.7
2023-03-06T05:25:14.448Z,9.9
2023-03-06T05:26:30.685Z,9.6
2023-03-06T05:27:46.919Z,9.4
2023-03-06T05:29:03.166Z,9.2
2023-03-06T05:30:19.405Z,9.5
2023-03-06T05:31:35.653Z,9.5
2023-03-06T05:32:51.896Z,9.3
2023-03-06T05:34:07.154Z,8.8
2023-03-06T05:35:23.380Z,9.4
2023-03-06T05:36:39.618Z,9.4
2023-03-06T05:39:12.103Z,10.1
2023-03-06T05:40:28.348Z,9.4
2023-03-06T05:41:44.597Z,10
2023-03-06T05:44:17.078Z,10.1
2023-03-06T05:45:33.323Z,9.8
2023-03-06T05:46:49.552Z,10.1
2023-03-06T05:48:05.801Z,9.8
2023-03-06T05:49:22.031Z,10.5
2023-03-06T05:50:37.290Z,10.5
2023-03-06T05:51:53.544Z,10.4
2023-03-06T05:53:09.786Z,11.1
2023-03-06T05:54:26.011Z,10
2023-03-06T05:55:42.265Z,10.2
2023-03-06T05:56:58.498Z,9.9
2023-03-06T05:58:14.732Z,10
2023-03-06T05:59:30.980Z,10.2
2023-03-06T06:00:47.213Z,10.9
2023-03-06T06:02:03.467Z,9.8
2023-03-06T06:03:19.709Z,10.1
2023-03-06T06:04:35.948Z,11
2023-03-06T06:05:52.192Z,11.2
2023-03-06T06:07:07.436Z,10.8
2023-03-06T06:08:23.692Z,10.9
2023-03-06T06:09:39.926Z,11
2023-03-06T06:10:56.176Z,11.3
2023-03-06T06:12:12.411Z,11.1
2023-03-06T06:13:28.651Z,10.7
2023-03-06T06:14:44.889Z,10.7
2023-03-06T06:16:01.132Z,12
2023-03-06T06:17:17.382Z,15.2
2023-03-06T06:18:33.620Z,12.7
2023-03-06T06:19:49.863Z,11.2
2023-03-06T06:21:06.087Z,10.4
2023-03-06T06:22:22.329Z,10.9
2023-03-06T06:23:37.601Z,10.5
2023-03-06T06:24:53.827Z,12.8
2023-03-06T06:26:10.068Z,12.2
2023-03-06T06:27:26.319Z,13.1
2023-03-06T06:28:42.561Z,14.7
2023-03-06T06:29:58.798Z,10
2023-03-06T06:31:15.032Z,9.6
2023-03-06T06:32:31.271Z,10.2
2023-03-06T06:33:47.519Z,11.3
2023-03-06T06:35:03.771Z,12.3
2023-03-06T06:36:20.000Z,10.8
2023-03-06T06:37:35.275Z,10.6
2023-03-06T06:38:51.512Z,10.8
2023-03-06T06:40:07.738Z,10.1
2023-03-06T06:41:23.992Z,9.7
2023-03-06T06:42:40.226Z,9.3
2023-03-06T06:43:56.460Z,10.3
2023-03-06T06:45:12.709Z,9.6
2023-03-06T06:46:28.945Z,10
2023-03-06T06:47:45.199Z,9.4
2023-03-06T06:49:01.438Z,9.4
2023-03-06T06:50:17.678Z,9.2
2023-03-06T06:52:50.152Z,9.5
2023-03-06T06:54:05.416Z,9.4
2023-03-06T06:55:21.652Z,9.5
2023-03-06T06:56:37.889Z,9.5
2023-03-06T06:57:54.132Z,9.5
2023-03-06T06:59:10.383Z,10.1
2023-03-06T07:00:26.609Z,9.2
2023-03-06T07:01:42.853Z,9.5
2023-03-06T07:02:59.106Z,9.4
2023-03-06T07:04:15.332Z,10
2023-03-06T07:05:31.583Z,9.8
2023-03-06T07:06:47.828Z,9.3
2023-03-06T07:08:04.072Z,9.6
2023-03-06T07:09:20.307Z,9.3
2023-03-06T07:10:35.557Z,10.1
2023-03-06T07:11:51.803Z,9.4
2023-03-06T07:13:08.049Z,9.8
2023-03-06T07:14:24.288Z,10.2
2023-03-06T07:15:40.526Z,10.1
2023-03-06T07:16:56.766Z,9.9
2023-03-06T07:18:12.998Z,9.6
2023-03-06T07:19:29.252Z,9.8
2023-03-06T07:20:45.486Z,9.6
2023-03-06T07:22:01.721Z,9.4
2023-03-06T07:23:17.962Z,9.7
2023-03-06T07:24:34.203Z,9.5
2023-03-06T07:25:50.454Z,10.1
2023-03-06T07:27:06.818Z,9.9
2023-03-06T07:28:23.063Z,9.9
2023-03-06T07:29:39.298Z,9.9
2023-03-06T07:30:55.532Z,10.3
2023-03-06T07:32:11.769Z,9.4
2023-03-06T07:33:28.022Z,9.6
2023-03-06T07:34:44.268Z,10
2023-03-06T07:36:00.495Z,9.2
2023-03-06T07:37:16.730Z,9.4
2023-03-06T07:38:32.987Z,9.5
2023-03-06T07:39:49.214Z,9.4
2023-03-06T07:41:05.460Z,9.6
2023-03-06T07:42:21.701Z,10
2023-03-06T07:43:36.973Z,9.6
2023-03-06T07:44:53.193Z,10.1
2023-03-06T07:46:09.450Z,9.9
2023-03-06T07:47:25.686Z,10.1
2023-03-06T07:48:41.932Z,10.1
2023-03-06T07:49:58.170Z,9.8
2023-03-06T07:51:14.405Z,9.8
2023-03-06T07:52:30.657Z,10.5
2023-03-06T07:53:46.897Z,10.5
2023-03-06T07:55:03.130Z,9.7
2023-03-06T07:56:19.375Z,10.2
2023-03-06T07:57:35.616Z,9.8
2023-03-06T07:58:51.859Z,10.3
2023-03-06T08:00:07.115Z,10.3
2023-03-06T08:01:23.351Z,10.4
2023-03-06T08:03:55.827Z,10.9
2023-03-06T08:05:12.069Z,10.4
2023-03-06T08:06:28.309Z,10.7
2023-03-06T08:07:44.554Z,10.7
2023-03-06T08:09:00.799Z,10.8
2023-03-06T08:10:17.029Z,10.6
2023-03-06T08:11:33.282Z,11.4
2023-03-06T08:12:49.519Z,11.6
2023-03-06T08:14:05.763Z,11.2
2023-03-06T08:15:22.005Z,11.3
2023-03-06T08:16:37.250Z,11.3
2023-03-06T08:17:53.485Z,11.3
2023-03-06T08:19:09.725Z,11.4
2023-03-06T08:20:25.957Z,11.7
2023-03-06T08:21:42.215Z,11.9
2023-03-06T08:22:58.443Z,11.8
2023-03-06T08:24:14.678Z,11.9
2023-03-06T08:25:30.934Z,12.2
2023-03-06T08:26:47.176Z,12.6
2023-03-06T08:28:03.415Z,12.4
2023-03-06T08:29:19.645Z,12.7
2023-03-06T08:31:52.136Z,12.7
2023-03-06T08:33:07.387Z,11.9
2023-03-06T08:34:23.623Z,11.5
2023-03-06T08:35:39.873Z,11.2
2023-03-06T08:36:56.107Z,11.9
2023-03-06T08:38:12.356Z,11.4
2023-03-06T08:39:28.600Z,11.2
2023-03-06T08:40:44.840Z,12.1
2023-03-06T08:42:01.071Z,11
2023-03-06T08:43:17.320Z,11
2023-03-06T08:44:33.556Z,11.4
2023-03-06T08:45:49.797Z,11.7
2023-03-06T08:47:06.030Z,11.7
2023-03-06T08:49:38.529Z,12.1
2023-03-06T08:50:53.775Z,11.6
2023-03-06T08:52:10.024Z,12
2023-03-06T08:53:26.246Z,12.5
2023-03-06T08:54:42.492Z,13
2023-03-06T08:55:58.747Z,12.8
2023-03-06T08:57:14.983Z,12.1
2023-03-06T08:58:31.215Z,12
2023-03-06T08:59:47.455Z,12.4
2023-03-06T09:01:03.700Z,12.5
2023-03-06T09:02:19.952Z,12.1
2023-03-06T09:03:36.178Z,12.2
2023-03-06T09:04:52.421Z,12.6
2023-03-06T09:06:08.674Z,12.2
2023-03-06T09:07:23.930Z,12.9
2023-03-06T09:08:40.153Z,12.6
2023-03-06T09:09:56.404Z,12.7
2023-03-06T09:11:12.639Z,12.6
2023-03-06T09:12:28.889Z,12.4
2023-03-06T09:13:45.125Z,12.3
2023-03-06T09:15:01.368Z,12
2023-03-06T09:16:17.609Z,12.6
2023-03-06T09:17:33.845Z,12.7
2023-03-06T09:18:50.079Z,12.4
2023-03-06T09:20:06.332Z,12.2
2023-03-06T09:21:22.574Z,12.9
2023-03-06T09:22:38.812Z,12.2
2023-03-06T09:23:54.076Z,12.4
2023-03-06T09:25:10.306Z,12.5
2023-03-06T09:26:26.553Z,13
2023-03-06T09:27:42.780Z,12.4
2023-03-06T09:28:59.025Z,12.8
2023-03-06T09:30:15.277Z,12.5
2023-03-06T09:31:31.510Z,12.6
2023-03-06T09:32:47.750Z,12.6
2023-03-06T09:34:03.989Z,12.8
2023-03-06T09:35:20.227Z,13
2023-03-06T09:36:36.465Z,13
2023-03-06T09:37:52.717Z,12.6
2023-03-06T09:39:08.964Z,12.7
2023-03-06T09:40:24.207Z,13.1
2023-03-06T09:42:56.693Z,12.8
2023-03-06T09:44:12.944Z,13.2
2023-03-06T09:45:29.182Z,12.5
2023-03-06T09:46:45.412Z,13
2023-03-06T09:48:01.650Z,11.9
2023-03-06T09:49:17.896Z,12.9
2023-03-06T09:50:34.127Z,12.4
2023-03-06T09:51:50.384Z,12.7
2023-03-06T09:53:06.618Z,13.1
2023-03-06T09:54:22.866Z,11.8
2023-03-06T09:55:39.096Z,12.3
2023-03-06T09:56:54.366Z,12.8
2023-03-06T09:58:10.595Z,11.6
2023-03-06T09:59:26.841Z,12.4
2023-03-06T10:00:43.088Z,11.9
2023-03-06T10:01:59.327Z,11.8
2023-03-06T10:03:15.552Z,12.5
2023-03-06T10:04:31.808Z,12.2
2023-03-06T10:05:48.039Z,12.3
2023-03-06T10:07:04.283Z,12.5
2023-03-06T10:08:20.519Z,12.4
2023-03-06T10:09:36.767Z,11.8
2023-03-06T10:10:53.014Z,11.8
2023-03-06T10:12:09.251Z,11.8
2023-03-06T10:13:24.507Z,12.9
2023-03-06T10:14:40.745Z,12.9
2023-03-06T10:15:56.987Z,12.8
2023-03-06T10:17:13.235Z,12
2023-03-06T10:18:29.460Z,12.9
2023-03-06T10:19:45.714Z,12.1
2023-03-06T10:21:01.947Z,12.6
2023-03-06T10:22:18.178Z,13.1
2023-03-06T10:23:34.417Z,13.1
2023-03-06T10:24:50.669Z,13.2
2023-03-06T10:26:06.915Z,12.7
2023-03-06T10:27:23.150Z,13
2023-03-06T10:28:39.383Z,13.2
2023-03-06T10:29:54.644Z,13.2
2023-03-06T10:31:10.896Z,13.6
2023-03-06T10:32:27.124Z,13.2
2023-03-06T10:33:43.372Z,13.3
2023-03-06T10:36:15.850Z,13.6
2023-03-06T10:37:32.092Z,13.4
2023-03-06T10:38:48.333Z,13.2
2023-03-06T10:40:04.574Z,13.3
2023-03-06T10:41:20.810Z,13
2023-03-06T10:42:37.057Z,13.2
2023-03-06T10:43:53.290Z,13.9
2023-03-06T10:45:09.536Z,14.5
2023-03-06T10:46:24.794Z,14.5
2023-03-06T10:47:41.041Z,14.3
2023-03-06T10:48:57.274Z,15
2023-03-06T10:50:13.518Z,15.2
2023-03-06T10:51:29.746Z,14.8
2023-03-06T10:52:45.004Z,14.8
2023-03-06T10:54:01.264Z,14.5
2023-03-06T10:55:17.504Z,15.2
2023-03-06T10:56:33.731Z,15.6
2023-03-06T10:57:49.967Z,15.4
2023-03-06T10:59:06.225Z,15
2023-03-06T11:00:22.454Z,15.1
2023-03-06T11:01:38.695Z,14.4
2023-03-06T11:02:54.936Z,15.7
2023-03-06T11:04:11.178Z,15.3
2023-03-06T11:05:27.421Z,15.2
2023-03-06T11:06:43.651Z,15.6
2023-03-06T11:07:59.892Z,15.2
2023-03-06T11:09:15.153Z,15.9
2023-03-06T11:10:31.398Z,15.9
2023-03-06T11:11:47.640Z,15.4
2023-03-06T11:13:03.878Z,16.2
2023-03-06T11:14:20.113Z,16.7
2023-03-06T11:15:36.351Z,16.5
2023-03-06T11:16:52.593Z,16.7
2023-03-06T11:18:08.844Z,16.7
2023-03-06T11:19:25.088Z,15.9
2023-03-06T11:21:57.567Z,16.3
2023-03-06T11:23:13.814Z,17.4
2023-03-06T11:24:30.050Z,16.9
2023-03-06T11:25:45.301Z,16.3
2023-03-06T11:27:01.542Z,16.2
2023-03-06T11:28:17.791Z,16.6
2023-03-06T11:32:06.515Z,17
2023-03-06T11:33:21.762Z,16.9
2023-03-06T11:35:53.256Z,16
2023-03-06T11:37:09.506Z,15.4
2023-03-06T11:38:25.738Z,15.6
2023-03-06T11:39:41.982Z,15.1
2023-03-06T11:40:58.217Z,14.8
2023-03-06T11:42:14.474Z,15.7
2023-03-06T11:43:30.699Z,16
2023-03-06T11:44:46.955Z,15.8
2023-03-06T11:46:03.179Z,15.9
2023-03-06T11:47:19.427Z,16.8
2023-03-06T11:48:34.700Z,16.8
2023-03-06T11:49:49.950Z,16.6
2023-03-06T11:51:06.192Z,16.6
2023-03-06T11:52:22.429Z,17
2023-03-06T11:53:38.660Z,16.1
2023-03-06T11:54:54.920Z,17.6
2023-03-06T11:56:11.157Z,17.8
2023-03-06T11:57:27.392Z,19.6
2023-03-06T11:58:43.642Z,17.8
2023-03-06T11:59:59.864Z,19
2023-03-06T12:01:16.123Z,18.5
2023-03-06T12:02:32.347Z,18.6
2023-03-06T12:03:48.601Z,18
2023-03-06T12:05:04.843Z,18.2
2023-03-06T12:07:36.337Z,16.9
2023-03-06T12:08:52.578Z,18
2023-03-06T12:10:08.809Z,17
2023-03-06T12:11:25.049Z,16.5
2023-03-06T12:12:41.295Z,16.4
2023-03-06T12:13:57.538Z,16.2
2023-03-06T12:15:13.771Z,16.2
2023-03-06T12:16:30.015Z,16.7
2023-03-06T12:17:46.244Z,16.1
2023-03-06T12:19:02.486Z,16.7
2023-03-06T12:20:18.733Z,16.6
2023-03-06T12:22:51.220Z,16.5
2023-03-06T12:24:06.468Z,16
2023-03-06T12:25:22.718Z,15.9
2023-03-06T12:26:38.947Z,16.2
2023-03-06T12:27:55.198Z,16.6
2023-03-06T12:29:11.438Z,17.1
2023-03-06T12:30:27.681Z,16.9
2023-03-06T12:31:43.915Z,17.8
2023-03-06T12:34:16.400Z,17.6
2023-03-06T12:35:32.630Z,17.5
2023-03-06T12:36:48.875Z,14.7
2023-03-06T12:38:05.120Z,14.1
2023-03-06T12:39:21.347Z,14.3
2023-03-06T12:40:36.622Z,14.8
2023-03-06T12:41:52.862Z,14.5
2023-03-06T12:43:09.102Z,14.3
2023-03-06T12:44:25.331Z,15.2
2023-03-06T12:45:41.574Z,15.3
2023-03-06T12:46:57.804Z,15.2
2023-03-06T12:48:14.047Z,15.7
2023-03-06T12:49:30.287Z,14.7
2023-03-06T12:50:46.542Z,14.3
2023-03-06T12:52:02.767Z,13.6
2023-03-06T12:53:19.018Z,14.1
2023-03-06T12:54:35.265Z,13.9
2023-03-06T12:55:51.503Z,19.8
2023-03-06T12:57:06.752Z,14.1
2023-03-06T12:58:23.007Z,13.4
2023-03-06T12:59:39.227Z,13.9
2023-03-06T13:00:55.478Z,13
2023-03-06T13:02:11.726Z,14
2023-03-06T13:03:27.000Z,15.6
2023-03-06T13:04:44.207Z,29.8
2023-03-06T13:08:32.920Z,33.5
2023-03-06T13:09:49.157Z,23.6
2023-03-06T13:11:05.398Z,20.1
2023-03-06T13:12:21.638Z,15.7
2023-03-06T13:13:36.890Z,16.2
2023-03-06T13:14:53.136Z,20.7
2023-03-06T13:16:09.382Z,19.6
2023-03-06T13:17:25.630Z,19.7
2023-03-06T13:18:41.867Z,19
2023-03-06T13:19:58.100Z,20.6
2023-03-06T13:21:14.337Z,21.3
2023-03-06T13:22:30.576Z,19.7
2023-03-06T13:23:46.817Z,19.5
2023-03-06T13:25:03.072Z,20.1
2023-03-06T13:26:19.300Z,18.6
2023-03-06T13:27:35.544Z,17.7
2023-03-06T13:28:51.794Z,16.7
2023-03-06T13:30:07.052Z,16.7
2023-03-06T13:31:23.282Z,15.9
2023-03-06T13:32:39.529Z,15
2023-03-06T13:33:55.764Z,14.5
2023-03-06T13:35:12.017Z,13.7
2023-03-06T13:36:28.238Z,13.9
2023-03-06T13:37:44.479Z,13.4
2023-03-06T13:39:00.738Z,13.8
2023-03-06T13:40:16.979Z,13.9
2023-03-06T13:41:33.209Z,12.5
2023-03-06T13:42:49.456Z,12
2023-03-06T13:44:05.682Z,11.4
2023-03-06T13:45:21.929Z,11.4
2023-03-06T13:46:37.191Z,10.8
2023-03-06T13:47:53.419Z,10.3
2023-03-06T13:49:09.678Z,11
2023-03-06T13:50:25.914Z,10.8
2023-03-06T13:51:42.157Z,11.1
2023-03-06T13:52:58.388Z,11
2023-03-06T13:54:14.623Z,11.7
2023-03-06T13:55:30.867Z,11.9
2023-03-06T13:56:47.109Z,12.9
2023-03-06T13:58:03.348Z,12.8
2023-03-06T13:59:19.603Z,13.1
2023-03-06T14:00:35.845Z,12.8
2023-03-06T14:03:08.309Z,14.8
2023-03-06T14:04:23.580Z,14.8
2023-03-06T14:05:39.811Z,14.7
2023-03-06T14:06:56.053Z,15.3
2023-03-06T14:08:12.301Z,15.4
2023-03-06T14:09:28.544Z,14.8
2023-03-06T14:10:44.779Z,15
2023-03-06T14:12:01.009Z,14.7
2023-03-06T14:13:17.265Z,14.8
2023-03-06T14:14:33.506Z,14.5
2023-03-06T14:15:49.740Z,14.7
2023-03-06T14:17:05.988Z,14.7
2023-03-06T14:18:22.217Z,15.3
2023-03-06T14:19:38.457Z,14.9
2023-03-06T14:20:53.720Z,14.6
2023-03-06T14:22:09.953Z,14.6
2023-03-06T14:23:26.194Z,15.3
2023-03-06T14:24:42.442Z,14.8
2023-03-06T14:25:58.684Z,14.7
2023-03-06T14:27:14.915Z,14.4
2023-03-06T14:28:31.157Z,14.6
2023-03-06T14:29:47.413Z,14.2
2023-03-06T14:31:03.645Z,14.9
2023-03-06T14:32:19.891Z,14
2023-03-06T14:33:36.123Z,13.7
2023-03-06T14:34:52.360Z,14.2
2023-03-06T14:36:08.609Z,14
2023-03-06T14:37:23.874Z,13.5
2023-03-06T14:38:40.099Z,13.4
2023-03-06T14:39:56.355Z,13.6
2023-03-06T14:41:12.593Z,13.8
2023-03-06T14:42:28.831Z,13.3
2023-03-06T14:43:45.069Z,15
2023-03-06T14:45:01.305Z,14.3
2023-03-06T14:46:17.545Z,13.7
2023-03-06T14:47:33.788Z,13.8
2023-03-06T14:48:50.024Z,13.6
2023-03-06T14:50:06.262Z,13.3
2023-03-06T14:51:22.522Z,13.3
2023-03-06T14:52:38.762Z,13.6
2023-03-06T14:55:10.247Z,14.1
2023-03-06T14:56:26.501Z,14.6
2023-03-06T14:57:42.736Z,15
2023-03-06T14:58:58.985Z,13.9
2023-03-06T15:00:15.222Z,12.9
2023-03-06T15:02:47.705Z,12.8
2023-03-06T15:04:03.933Z,12.4
2023-03-06T15:05:20.180Z,13.2
2023-03-06T15:06:36.421Z,12.9
2023-03-06T15:07:51.673Z,14.2
2023-03-06T15:09:07.917Z,14
2023-03-06T15:10:24.171Z,13.5
2023-03-06T15:11:40.404Z,13.3
2023-03-06T15:12:56.653Z,13.1
2023-03-06T15:14:12.894Z,12.8
2023-03-06T15:15:29.128Z,13.1
2023-03-06T15:16:45.373Z,12.6
2023-03-06T15:18:01.601Z,13.5
2023-03-06T15:19:17.842Z,13.5
2023-03-06T15:20:34.098Z,13.2
2023-03-06T15:21:50.331Z,13.7
2023-03-06T15:23:06.561Z,13.4
2023-03-06T15:24:21.827Z,13.3
2023-03-06T15:25:38.062Z,13.4
2023-03-06T15:26:54.315Z,13.1
2023-03-06T15:28:10.545Z,13.6
2023-03-06T15:29:26.786Z,13.3
2023-03-06T15:30:43.027Z,14
2023-03-06T15:31:59.272Z,14.1
2023-03-06T15:33:15.518Z,13.7
2023-03-06T15:34:31.753Z,13.3
2023-03-06T15:35:47.983Z,13.5
2023-03-06T15:37:04.226Z,13.1
2023-03-06T15:38:20.484Z,12.9
2023-03-06T15:39:36.705Z,12.6
2023-03-06T15:40:51.967Z,13
2023-03-06T15:42:08.212Z,14.2
2023-03-06T15:43:24.453Z,14.2
2023-03-06T15:44:40.692Z,14.2
2023-03-06T15:45:56.934Z,14
2023-03-06T15:47:13.177Z,14.6
2023-03-06T15:48:29.423Z,14.2
2023-03-06T15:49:45.661Z,14.8
2023-03-06T15:52:18.144Z,14
2023-03-06T15:53:34.377Z,16.2
2023-03-06T15:54:50.614Z,15.7
2023-03-06T15:56:06.862Z,14.5
2023-03-06T15:57:22.123Z,14.6
2023-03-06T15:58:38.363Z,15
2023-03-06T15:59:54.597Z,15.2
2023-03-06T16:01:10.843Z,14.8
2023-03-06T16:02:27.077Z,14.7
2023-03-06T16:03:43.328Z,15.8
2023-03-06T16:04:59.558Z,15.6
2023-03-06T16:06:15.812Z,16.2
2023-03-06T16:07:32.048Z,16.2
2023-03-06T16:08:48.286Z,15.5
2023-03-06T16:11:20.768Z,17.8
2023-03-06T16:12:36.997Z,13.9
2023-03-06T16:13:52.256Z,12
2023-03-06T16:15:08.501Z,10.7
2023-03-06T16:16:24.742Z,10.3
2023-03-06T16:18:57.217Z,10.7
2023-03-06T16:20:13.459Z,10.8
2023-03-06T16:21:29.705Z,10.6
2023-03-06T16:22:45.954Z,11.1
2023-03-06T16:24:02.182Z,11.3
2023-03-06T16:25:18.423Z,11.3
2023-03-06T16:26:34.665Z,11.1
2023-03-06T16:27:50.910Z,10.8
2023-03-06T16:29:07.151Z,11.3
2023-03-06T16:30:22.411Z,11.8
2023-03-06T16:31:38.650Z,12.3
2023-03-06T16:32:54.900Z,12.5
2023-03-06T16:34:11.124Z,13
2023-03-06T16:35:27.372Z,13
2023-03-06T16:36:43.611Z,12.6
2023-03-06T16:37:59.850Z,13.7
2023-03-06T16:39:16.103Z,13.3
2023-03-06T16:41:48.567Z,13.3
2023-03-06T16:43:04.806Z,13.4
2023-03-06T16:44:21.063Z,13.8
2023-03-06T16:45:37.292Z,14.4
2023-03-06T16:46:52.550Z,14.3
2023-03-06T16:48:08.790Z,13.4
2023-03-06T16:49:25.032Z,13.5
2023-03-06T16:50:41.269Z,14.3
2023-03-06T16:51:57.514Z,14.2
2023-03-06T16:53:13.765Z,13.8
2023-03-06T16:54:29.998Z,14.4
2023-03-06T16:55:46.244Z,14.3
2023-03-06T16:57:02.488Z,15.6
2023-03-06T16:58:18.718Z,16.4
2023-03-06T16:59:34.955Z,17.3
2023-03-06T17:00:51.196Z,18.8
2023-03-06T17:02:07.454Z,18.2
2023-03-06T17:03:22.709Z,19
2023-03-06T17:04:38.931Z,18.1
2023-03-06T17:05:55.180Z,19.3
2023-03-06T17:07:11.427Z,18.5
2023-03-06T17:08:27.659Z,17.8
2023-03-06T17:09:43.903Z,19.4
2023-03-06T17:11:00.145Z,20.8
2023-03-06T17:12:16.380Z,20.1
2023-03-06T17:13:32.619Z,20
2023-03-06T17:14:48.871Z,20.4
2023-03-06T17:16:05.101Z,19.3
2023-03-06T17:17:21.357Z,18.7
2023-03-06T17:19:53.841Z,18
2023-03-06T17:21:09.098Z,16.6
2023-03-06T17:22:25.337Z,16.7
2023-03-06T17:23:41.575Z,15.8
2023-03-06T17:24:57.810Z,16.2
2023-03-06T17:26:14.051Z,16.3
2023-03-06T17:27:30.344Z,17.2
2023-03-06T17:28:46.645Z,17.5
2023-03-06T17:30:02.940Z,19.3
2023-03-06T17:31:19.236Z,22.7
2023-03-06T17:32:35.525Z,18.8
2023-03-06T17:33:51.814Z,18
2023-03-06T17:35:08.114Z,19.4
2023-03-06T17:36:24.420Z,21.5
2023-03-06T17:37:39.729Z,20.1
2023-03-06T17:38:56.015Z,24.1
2023-03-06T17:40:12.317Z,38.4
2023-03-06T17:41:28.616Z,29.4
2023-03-06T17:42:44.896Z,26.4
2023-03-06T17:44:01.201Z,27.2
2023-03-06T17:45:17.485Z,26
2023-03-06T17:46:33.778Z,26.5
2023-03-06T17:47:50.071Z,25.7
2023-03-06T17:49:06.373Z,24.9
2023-03-06T17:50:22.660Z,24.5
2023-03-06T17:51:38.965Z,24.8
2023-03-06T17:52:55.000Z,22.3
2023-03-06T17:54:10.560Z,20.4
2023-03-06T17:55:26.869Z,19
2023-03-06T17:56:43.152Z,19.5
2023-03-06T17:57:59.457Z,21.1
2023-03-06T17:59:15.743Z,21.4
2023-03-06T18:00:32.035Z,22.3
2023-03-06T18:01:48.343Z,20.3